Time;durP1;ratioP1;P1;durP2;ratioP2;P2;SDS_P1;SDS_P2;PMS_P1;PMS_P2;Temp;Humidity;BMP_temperature;BMP_pressure;BME280_temperature;BME280_humidity;BME280_pressure;Samples;Min_cycle;Max_cycle;Signal;HPM_P1;HPM_P2
2022/07/22 00:02:22;;;;;;;8.37;5.30;;;19.00;99.90;;;;;;5033017;28;20180;-81
2022/07/22 00:04:47;;;;;;;7.87;6.53;;;19.00;99.90;;;;;;5033129;28;20179;-81
2022/07/22 00:07:13;;;;;;;7.03;5.90;;;18.90;99.90;;;;;;5032995;28;20175;-81
2022/07/22 00:09:39;;;;;;;9.20;6.73;;;18.90;99.90;;;;;;5032566;28;20177;-81
2022/07/22 00:12:05;;;;;;;9.50;5.30;;;18.90;99.90;;;;;;5032980;28;20416;-80
2022/07/22 00:14:30;;;;;;;6.53;5.33;;;18.90;99.90;;;;;;5032834;28;20272;-80
2022/07/22 00:16:56;;;;;;;9.10;7.17;;;18.90;99.90;;;;;;5032933;28;20208;-81
2022/07/22 00:19:24;;;;;;;6.90;5.07;;;18.90;99.90;;;;;;5032801;28;20237;-80
2022/07/22 00:21:50;;;;;;;9.80;7.67;;;18.90;99.90;;;;;;5040324;28;20262;-80
2022/07/22 00:24:15;;;;;;;10.00;7.97;;;18.90;99.90;;;;;;5052555;28;20433;-80
2022/07/22 00:26:41;;;;;;;8.67;7.30;;;18.90;99.90;;;;;;5052891;28;20417;-81
2022/07/22 00:29:06;;;;;;;8.40;7.47;;;18.90;99.90;;;;;;5052490;28;20224;-80
2022/07/22 00:31:32;;;;;;;9.27;6.90;;;18.90;99.90;;;;;;5052741;28;20176;-81
2022/07/22 00:34:00;;;;;;;11.90;7.90;;;18.90;99.90;;;;;;5052807;28;20713;-81
2022/07/22 00:36:27;;;;;;;13.63;8.43;;;18.90;99.90;;;;;;5052674;28;20628;-81
2022/07/22 00:38:52;;;;;;;13.47;8.50;;;18.90;99.90;;;;;;5052253;28;20498;-81
2022/07/22 00:41:18;;;;;;;12.77;8.53;;;18.90;99.90;;;;;;5052705;28;20465;-81
2022/07/22 00:43:53;;;;;;;10.93;8.17;;;18.90;99.90;;;;;;5052545;28;20260;-81
2022/07/22 00:46:18;;;;;;;9.83;7.90;;;19.00;99.90;;;;;;5056266;28;20197;-81
2022/07/22 00:48:44;;;;;;;11.50;8.57;;;18.90;99.90;;;;;;5056696;28;20447;-81
2022/07/22 00:51:09;;;;;;;10.03;8.47;;;18.90;99.90;;;;;;5056659;28;20171;-81
2022/07/22 00:53:35;;;;;;;13.90;9.00;;;18.90;99.90;;;;;;5056418;28;20162;-81
2022/07/22 00:56:03;;;;;;;10.07;7.83;;;18.90;99.90;;;;;;5056460;28;20175;-81
2022/07/22 00:58:28;;;;;;;13.07;10.00;;;18.90;99.90;;;;;;5056425;28;20250;-80
2022/07/22 01:00:54;;;;;;;12.60;8.03;;;18.80;99.90;;;;;;5056582;28;20422;-81
2022/07/22 01:03:19;;;;;;;8.07;6.20;;;18.70;99.90;;;;;;5056433;28;20543;-81
2022/07/22 01:05:45;;;;;;;9.17;5.20;;;18.50;99.90;;;;;;5056342;28;20182;-81
2022/07/22 01:08:10;;;;;;;6.63;5.47;;;18.40;99.90;;;;;;5056340;28;20174;-80
2022/07/22 01:10:36;;;;;;;6.73;4.27;;;18.50;99.90;;;;;;5055848;28;20606;-80
2022/07/22 01:13:01;;;;;;;6.47;4.10;;;18.30;99.90;;;;;;5056223;28;20175;-81
2022/07/22 01:15:27;;;;;;;6.63;3.60;;;18.30;99.90;;;;;;5054681;28;20640;-81
2022/07/22 01:17:52;;;;;;;5.90;3.63;;;18.30;99.90;;;;;;5055019;28;20250;-81
2022/07/22 01:20:18;;;;;;;7.27;3.60;;;18.40;99.90;;;;;;5054784;28;20217;-80
2022/07/22 01:22:44;;;;;;;3.47;2.67;;;18.30;99.90;;;;;;5056300;28;20192;-80
2022/07/22 01:25:10;;;;;;;2.20;1.87;;;18.20;99.90;;;;;;5055920;28;20176;-80
2022/07/22 01:27:36;;;;;;;3.73;1.43;;;18.20;99.90;;;;;;5055965;28;20464;-80
2022/07/22 01:30:04;;;;;;;1.43;1.00;;;18.10;99.90;;;;;;5053956;28;20425;-80
2022/07/22 01:32:29;;;;;;;2.37;1.50;;;18.00;99.90;;;;;;5056399;28;20634;-80
2022/07/22 01:34:55;;;;;;;2.10;1.23;;;18.00;99.90;;;;;;5055445;28;20420;-81
2022/07/22 01:37:20;;;;;;;2.20;1.27;;;17.90;99.90;;;;;;5055613;28;20235;-81
2022/07/22 01:39:46;;;;;;;2.50;0.50;;;17.90;99.90;;;;;;5054327;28;20214;-81
2022/07/22 01:42:11;;;;;;;1.83;1.13;;;18.00;99.90;;;;;;5055973;28;20181;-80
2022/07/22 01:44:37;;;;;;;1.70;1.00;;;18.00;99.90;;;;;;5055973;28;20183;-80
2022/07/22 01:47:02;;;;;;;1.50;1.00;;;17.80;99.90;;;;;;5054733;28;20366;-80
2022/07/22 01:49:28;;;;;;;1.07;0.30;;;17.80;99.90;;;;;;5055885;28;20183;-79
2022/07/22 01:51:54;;;;;;;1.47;0.80;;;17.70;99.90;;;;;;5055840;28;20181;-80
2022/07/22 01:54:25;;;;;;;1.93;0.70;;;17.50;99.90;;;;;;5055425;28;20176;-80
2022/07/22 01:56:51;;;;;;;1.67;0.40;;;17.50;99.90;;;;;;5054939;28;20218;-79
2022/07/22 01:59:16;;;;;;;2.13;1.00;;;17.50;99.90;;;;;;5055566;28;20809;-79
2022/07/22 02:01:42;;;;;;;2.17;1.03;;;17.50;99.90;;;;;;5055705;28;20172;-79
2022/07/22 02:04:07;;;;;;;0.80;0.23;;;17.50;99.90;;;;;;5055595;28;20267;-80
2022/07/22 02:06:33;;;;;;;3.77;0.43;;;17.40;99.90;;;;;;5055597;28;20177;-80
2022/07/22 02:08:59;;;;;;;1.50;0.70;;;17.30;99.90;;;;;;5055179;28;20250;-80
2022/07/22 02:11:24;;;;;;;0.97;0.60;;;17.20;99.90;;;;;;5055410;28;20202;-80
2022/07/22 02:13:50;;;;;;;1.67;1.17;;;17.20;99.90;;;;;;5055363;28;20180;-80
2022/07/22 02:16:15;;;;;;;1.37;0.60;;;17.20;99.90;;;;;;5055350;28;20248;-80
2022/07/22 02:18:41;;;;;;;3.50;1.53;;;17.20;99.90;;;;;;5055252;28;20244;-80
2022/07/22 02:21:06;;;;;;;2.00;1.60;;;17.10;99.90;;;;;;5055306;28;20173;-80
2022/07/22 02:23:32;;;;;;;4.57;2.13;;;17.00;99.90;;;;;;5054880;28;20188;-80
2022/07/22 02:25:57;;;;;;;3.77;2.83;;;17.00;99.90;;;;;;5055251;28;20687;-80
2022/07/22 02:28:23;;;;;;;3.77;2.23;;;17.00;99.90;;;;;;5054934;28;20232;-80
2022/07/22 02:30:48;;;;;;;3.53;3.00;;;16.90;99.90;;;;;;5055157;28;20171;-80
2022/07/22 02:33:14;;;;;;;4.47;2.27;;;16.90;99.90;;;;;;5055081;28;20180;-80
2022/07/22 02:35:40;;;;;;;3.70;2.50;;;16.90;99.90;;;;;;5053720;28;20230;-80
2022/07/22 02:38:07;;;;;;;2.90;1.47;;;16.90;99.90;;;;;;5054909;28;20302;-80
2022/07/22 02:40:33;;;;;;;4.43;2.53;;;16.90;99.90;;;;;;5054972;28;20436;-80
2022/07/22 02:42:59;;;;;;;2.93;1.80;;;16.90;99.90;;;;;;5054916;28;20442;-80
2022/07/22 02:45:24;;;;;;;3.20;1.40;;;16.80;99.90;;;;;;5055086;28;20172;-80
2022/07/22 02:47:53;;;;;;;3.33;1.93;;;16.80;99.90;;;;;;5054729;28;20414;-79
2022/07/22 02:50:18;;;;;;;2.90;1.57;;;16.80;99.90;;;;;;5054769;28;20170;-80
2022/07/22 02:52:44;;;;;;;2.20;1.10;;;16.80;99.90;;;;;;5054592;28;20898;-81
2022/07/22 02:55:09;;;;;;;2.83;1.13;;;16.80;99.90;;;;;;5054366;28;20621;-80
2022/07/22 02:57:35;;;;;;;2.40;1.53;;;16.80;99.90;;;;;;5054548;28;20565;-81
2022/07/22 03:00:01;;;;;;;2.23;1.10;;;16.80;99.90;;;;;;5054584;28;20520;-81
2022/07/22 03:02:26;;;;;;;4.87;1.80;;;16.80;99.90;;;;;;5054508;28;20346;-80
2022/07/22 03:04:52;;;;;;;2.60;1.10;;;16.80;99.90;;;;;;5053276;28;20186;-80
2022/07/22 03:07:17;;;;;;;1.17;0.60;;;16.80;99.90;;;;;;5054302;28;20175;-80
2022/07/22 03:09:45;;;;;;;3.00;0.63;;;16.80;99.90;;;;;;5052922;28;20212;-80
2022/07/22 03:12:10;;;;;;;1.47;0.30;;;16.70;99.90;;;;;;5054293;28;20578;-80
2022/07/22 03:14:36;;;;;;;3.57;0.80;;;16.80;99.90;;;;;;5054275;28;20442;-80
2022/07/22 03:17:01;;;;;;;1.40;1.07;;;16.80;99.90;;;;;;5054252;28;20171;-80
2022/07/22 03:19:27;;;;;;;3.83;1.23;;;16.70;99.90;;;;;;5052922;28;20520;-80
2022/07/22 03:21:52;;;;;;;2.10;0.70;;;16.70;99.90;;;;;;5054181;28;20223;-80
2022/07/22 03:24:17;;;;;;;1.87;0.60;;;16.70;99.90;;;;;;5053661;28;20222;-80
2022/07/22 03:26:43;;;;;;;2.90;1.30;;;16.70;99.90;;;;;;5054003;28;20182;-80
2022/07/22 03:29:08;;;;;;;2.57;1.10;;;16.70;99.90;;;;;;5053738;28;20300;-80
2022/07/22 03:31:34;;;;;;;1.93;0.57;;;16.60;99.90;;;;;;5053921;28;20183;-80
2022/07/22 03:34:00;;;;;;;0.60;0.20;;;16.60;99.90;;;;;;5053985;28;20573;-80
2022/07/22 03:36:28;;;;;;;0.97;0.30;;;16.70;99.90;;;;;;5053856;28;20212;-80
2022/07/22 03:38:54;;;;;;;0.83;0.53;;;16.70;99.90;;;;;;5053443;28;20421;-80
2022/07/22 03:41:19;;;;;;;2.10;0.60;;;16.60;99.90;;;;;;5053654;28;20774;-80
2022/07/22 03:43:45;;;;;;;1.57;0.63;;;16.50;99.90;;;;;;5053797;28;20203;-80
2022/07/22 03:46:10;;;;;;;1.20;0.50;;;16.60;99.90;;;;;;5053712;28;20252;-80
2022/07/22 03:48:36;;;;;;;1.23;0.40;;;16.60;99.90;;;;;;5053585;28;20215;-80
2022/07/22 03:51:01;;;;;;;1.17;0.70;;;16.60;99.90;;;;;;5053586;28;20211;-80
2022/07/22 03:53:27;;;;;;;1.30;0.20;;;16.60;99.90;;;;;;5053217;28;20172;-80
2022/07/22 03:55:52;;;;;;;1.10;0.50;;;16.60;99.90;;;;;;5053444;28;20289;-81
2022/07/22 03:58:18;;;;;;;1.70;0.37;;;16.60;99.90;;;;;;5053491;28;20691;-80
2022/07/22 04:00:44;;;;;;;0.97;0.63;;;16.60;99.90;;;;;;5053476;28;20179;-80
2022/07/22 04:03:10;;;;;;;1.10;0.43;;;16.70;99.90;;;;;;5052172;28;20263;-80
2022/07/22 04:05:35;;;;;;;2.47;0.30;;;16.70;99.90;;;;;;5052183;28;20532;-80
2022/07/22 04:08:01;;;;;;;1.93;0.30;;;16.70;99.90;;;;;;5053007;28;20226;-80
2022/07/22 04:10:26;;;;;;;1.57;0.57;;;16.60;99.90;;;;;;5053202;28;20212;-80
2022/07/22 04:12:52;;;;;;;3.80;0.87;;;16.70;99.90;;;;;;5053181;28;20655;-80
2022/07/22 04:15:17;;;;;;;1.40;0.73;;;16.70;99.90;;;;;;5053239;28;20180;-80
2022/07/22 04:17:42;;;;;;;2.03;0.47;;;16.70;99.90;;;;;;5053222;28;20222;-80
2022/07/22 04:20:08;;;;;;;1.30;0.47;;;16.70;99.90;;;;;;5052847;28;20166;-80
2022/07/22 04:22:34;;;;;;;1.50;0.30;;;16.70;99.90;;;;;;5053150;28;20652;-80
2022/07/22 04:25:00;;;;;;;1.17;0.40;;;16.70;99.90;;;;;;5052694;28;20417;-80
2022/07/22 04:27:25;;;;;;;2.30;0.53;;;16.60;99.90;;;;;;5052769;28;20172;-81
2022/07/22 04:29:52;;;;;;;0.80;0.20;;;16.60;99.90;;;;;;5052854;28;20243;-81
2022/07/22 04:32:18;;;;;;;1.80;0.50;;;16.60;99.90;;;;;;5052945;28;20446;-80
2022/07/22 04:34:43;;;;;;;1.57;0.20;;;16.50;99.90;;;;;;5053028;28;20466;-80
2022/07/22 04:37:09;;;;;;;1.10;0.30;;;16.50;99.90;;;;;;5053048;28;20662;-81
2022/07/22 04:39:34;;;;;;;3.40;1.13;;;16.40;99.90;;;;;;5052554;28;20261;-81
2022/07/22 04:42:00;;;;;;;1.33;0.43;;;16.40;99.90;;;;;;5052873;28;20523;-81
2022/07/22 04:44:25;;;;;;;1.60;0.40;;;16.40;99.90;;;;;;5052953;28;20172;-80
2022/07/22 04:46:51;;;;;;;4.17;0.67;;;16.30;99.90;;;;;;5052875;28;20229;-80
2022/07/22 04:49:16;;;;;;;1.00;0.40;;;16.40;99.90;;;;;;5052763;28;20210;-80
2022/07/22 04:51:42;;;;;;;0.60;0.43;;;16.40;99.90;;;;;;5052886;28;20541;-80
2022/07/22 04:54:07;;;;;;;2.50;0.30;;;16.20;99.90;;;;;;5052465;28;20213;-80
2022/07/22 04:56:33;;;;;;;1.47;0.23;;;16.30;99.90;;;;;;5052720;28;20662;-80
2022/07/22 04:58:58;;;;;;;2.60;0.50;;;16.20;99.90;;;;;;5052749;28;20168;-81
2022/07/22 05:01:24;;;;;;;1.20;0.30;;;16.20;99.90;;;;;;5052659;28;20177;-81
2022/07/22 05:03:50;;;;;;;2.00;0.40;;;16.20;99.90;;;;;;5052796;28;20202;-80
2022/07/22 05:06:16;;;;;;;0.77;0.30;;;16.30;99.90;;;;;;5052746;28;20188;-81
2022/07/22 05:08:42;;;;;;;1.33;0.77;;;16.30;99.90;;;;;;5052252;28;20468;-81
2022/07/22 05:11:07;;;;;;;0.50;0.30;;;16.30;99.90;;;;;;5052647;28;20272;-81
2022/07/22 05:13:33;;;;;;;1.27;0.20;;;16.20;99.90;;;;;;5052663;28;20171;-81
2022/07/22 05:16:03;;;;;;;0.90;0.50;;;16.30;99.90;;;;;;5051276;28;20176;-81
2022/07/22 05:18:29;;;;;;;1.97;0.50;;;16.30;99.90;;;;;;5052644;28;20259;-82
2022/07/22 05:20:54;;;;;;;3.90;1.43;;;16.30;99.90;;;;;;5052512;28;20518;-81
2022/07/22 05:23:20;;;;;;;2.70;1.33;;;16.30;99.90;;;;;;5052127;28;20172;-81
2022/07/22 05:25:45;;;;;;;1.70;1.20;;;16.30;99.90;;;;;;5051269;28;20267;-80
2022/07/22 05:28:11;;;;;;;1.67;0.67;;;16.30;99.90;;;;;;5052126;28;20225;-80
2022/07/22 05:30:37;;;;;;;3.20;1.43;;;16.30;99.90;;;;;;5052507;28;20552;-80
2022/07/22 05:33:02;;;;;;;1.83;0.80;;;16.30;99.90;;;;;;5055394;28;20467;-80
2022/07/22 05:35:28;;;;;;;2.60;1.03;;;16.30;99.90;;;;;;5056148;28;20183;-80
2022/07/22 05:37:53;;;;;;;1.67;0.40;;;16.30;99.90;;;;;;5055799;28;20220;-80
2022/07/22 05:40:19;;;;;;;1.83;0.63;;;16.30;99.90;;;;;;5056075;28;20637;-80
2022/07/22 05:42:44;;;;;;;1.73;1.03;;;16.30;99.90;;;;;;5056004;28;20221;-80
2022/07/22 05:45:10;;;;;;;2.43;1.30;;;16.30;99.90;;;;;;5055898;28;20639;-80
2022/07/22 05:47:35;;;;;;;5.10;1.53;;;16.20;99.90;;;;;;5055975;28;20161;-80
2022/07/22 05:50:01;;;;;;;3.57;1.17;;;16.20;99.90;;;;;;5055775;28;20218;-80
2022/07/22 05:52:26;;;;;;;1.10;0.50;;;16.20;99.90;;;;;;5055847;28;20497;-80
2022/07/22 05:54:52;;;;;;;1.73;0.50;;;16.20;99.90;;;;;;5055448;28;20543;-80
2022/07/22 05:57:17;;;;;;;4.40;0.83;;;16.20;99.90;;;;;;5055851;28;20163;-80
2022/07/22 05:59:43;;;;;;;1.47;0.80;;;16.20;99.90;;;;;;5062612;28;20178;-79
2022/07/22 06:02:08;;;;;;;2.63;0.80;;;16.20;99.90;;;;;;5062911;28;20694;-79
2022/07/22 06:04:34;;;;;;;1.77;0.80;;;16.20;99.90;;;;;;5055656;28;20210;-80
2022/07/22 06:06:59;;;;;;;1.30;0.67;;;16.20;99.90;;;;;;5054211;28;20167;-80
2022/07/22 06:09:25;;;;;;;1.40;0.83;;;16.30;99.90;;;;;;5053788;28;20219;-80
2022/07/22 06:11:51;;;;;;;1.30;0.73;;;16.40;99.90;;;;;;5055196;28;20206;-80
2022/07/22 06:14:16;;;;;;;2.03;0.70;;;16.60;99.90;;;;;;5055136;28;20173;-81
2022/07/22 06:16:41;;;;;;;2.00;1.03;;;16.60;99.90;;;;;;5055036;28;20183;-80
2022/07/22 06:19:07;;;;;;;2.17;0.77;;;16.70;99.90;;;;;;5055178;28;20184;-81
2022/07/22 06:21:32;;;;;;;2.90;0.70;;;16.70;99.90;;;;;;5055068;28;20297;-80
2022/07/22 06:23:58;;;;;;;2.83;0.57;;;16.70;99.90;;;;;;5054724;28;20173;-80
2022/07/22 06:26:23;;;;;;;2.00;0.30;;;16.80;99.90;;;;;;5054994;28;20310;-79
2022/07/22 06:28:49;;;;;;;1.07;0.40;;;17.10;99.90;;;;;;5054679;28;20235;-79
2022/07/22 06:31:16;;;;;;;2.40;0.60;;;17.70;99.90;;;;;;5054856;28;20566;-79
2022/07/22 06:33:41;;;;;;;1.33;0.50;;;18.00;99.90;;;;;;5054969;28;20213;-81
2022/07/22 06:36:07;;;;;;;1.13;0.73;;;17.90;99.90;;;;;;5054901;28;20418;-81
2022/07/22 06:38:33;;;;;;;3.07;1.13;;;17.70;99.90;;;;;;5054580;28;20218;-81
2022/07/22 06:40:58;;;;;;;1.00;0.50;;;17.80;99.90;;;;;;5053547;28;20816;-82
2022/07/22 06:43:24;;;;;;;1.97;0.43;;;17.80;99.90;;;;;;5054493;28;20261;-81
2022/07/22 06:45:50;;;;;;;2.93;0.83;;;17.70;99.90;;;;;;5054678;28;20665;-81
2022/07/22 06:48:16;;;;;;;0.97;0.30;;;17.60;99.90;;;;;;5054577;28;20530;-81
2022/07/22 06:50:41;;;;;;;1.80;0.40;;;17.60;99.90;;;;;;5054572;28;20425;-82
2022/07/22 06:53:07;;;;;;;2.10;0.47;;;17.70;99.90;;;;;;5054262;28;20586;-82
2022/07/22 06:55:32;;;;;;;2.63;0.80;;;18.20;99.90;;;;;;5054529;28;20168;-79
2022/07/22 06:57:58;;;;;;;3.00;0.90;;;18.80;99.90;;;;;;5053321;28;20238;-81
2022/07/22 07:00:23;;;;;;;2.23;0.77;;;19.50;99.90;;;;;;5054119;28;20194;-80
2022/07/22 07:02:49;;;;;;;2.30;0.53;;;19.70;91.50;;;;;;5054357;28;20259;-80
2022/07/22 07:05:15;;;;;;;4.13;0.60;;;19.60;99.90;;;;;;5053205;28;20783;-81
2022/07/22 07:07:41;;;;;;;3.20;1.03;;;19.00;99.90;;;;;;5053974;28;20390;-81
2022/07/22 07:10:09;;;;;;;1.77;0.50;;;18.70;99.90;;;;;;5054210;28;20471;-80
2022/07/22 07:12:35;;;;;;;2.37;0.50;;;19.70;99.90;;;;;;5054115;28;20181;-81
2022/07/22 07:15:00;;;;;;;1.93;0.47;;;19.60;55.80;;;;;;5054082;28;20416;-80
2022/07/22 07:17:26;;;;;;;2.63;0.80;;;19.50;99.90;;;;;;5054078;28;20839;-80
2022/07/22 07:19:51;;;;;;;1.40;0.30;;;19.70;99.90;;;;;;5054020;28;20582;-80
2022/07/22 07:22:17;;;;;;;2.40;1.20;;;19.30;99.90;;;;;;5054030;28;20584;-81
2022/07/22 07:24:42;;;;;;;1.97;0.53;;;19.00;99.90;;;;;;5053746;28;20169;-79
2022/07/22 07:27:08;;;;;;;1.47;0.73;;;18.60;99.90;;;;;;5054033;28;20206;-79
2022/07/22 07:29:33;;;;;;;0.90;0.60;;;18.40;99.90;;;;;;5053762;28;20224;-79
2022/07/22 07:31:59;;;;;;;1.33;0.80;;;18.20;99.90;;;;;;5053269;28;20220;-79
2022/07/22 07:34:25;;;;;;;1.40;0.80;;;18.20;99.90;;;;;;5053391;28;20206;-80
2022/07/22 07:36:50;;;;;;;0.90;0.50;;;18.40;99.90;;;;;;5053594;28;20207;-81
2022/07/22 07:39:16;;;;;;;2.03;0.43;;;18.80;99.90;;;;;;5052411;28;20174;-80
2022/07/22 07:41:42;;;;;;;2.00;1.13;;;19.10;99.90;;;;;;5053103;28;20526;-81
2022/07/22 07:44:07;;;;;;;2.23;0.60;;;19.40;99.90;;;;;;5053202;28;20424;-81
2022/07/22 07:46:33;;;;;;;1.57;0.40;;;19.20;1.00;;;;;;5053125;28;20648;-80
2022/07/22 07:48:58;;;;;;;0.60;0.20;;;19.10;65.00;;;;;;5052947;28;20204;-80
2022/07/22 07:51:24;;;;;;;2.67;0.50;;;19.00;99.90;;;;;;5053294;28;20301;-80
2022/07/22 07:53:50;;;;;;;1.33;0.33;;;18.80;99.00;;;;;;5052765;28;20170;-80
2022/07/22 07:56:16;;;;;;;2.30;0.30;;;18.60;99.90;;;;;;5053063;28;20196;-80
2022/07/22 07:58:41;;;;;;;1.43;0.20;;;18.40;99.90;;;;;;5053368;28;20517;-80
2022/07/22 08:01:07;;;;;;;0.73;0.40;;;18.40;99.90;;;;;;5053225;28;20860;-80
2022/07/22 08:03:32;;;;;;;1.33;0.33;;;18.30;99.90;;;;;;5053199;28;20175;-80
2022/07/22 08:05:59;;;;;;;1.93;0.50;;;18.30;99.90;;;;;;5053231;28;20251;-80
2022/07/22 08:08:25;;;;;;;7.33;0.97;;;18.30;99.90;;;;;;5052677;28;20179;-80
2022/07/22 08:10:50;;;;;;;1.10;0.60;;;18.20;99.90;;;;;;5085460;28;20427;-80
2022/07/22 08:13:16;;;;;;;1.60;0.20;;;18.20;99.90;;;;;;5052925;28;20233;-79
2022/07/22 08:15:41;;;;;;;2.30;0.70;;;18.10;54.40;;;;;;5051047;28;20206;-80
2022/07/22 08:18:07;;;;;;;2.70;0.60;;;18.20;99.90;;;;;;5052569;28;20567;-80
2022/07/22 08:20:33;;;;;;;1.57;0.53;;;18.30;99.90;;;;;;5052430;28;20661;-79
2022/07/22 08:22:58;;;;;;;1.80;0.50;;;18.30;99.90;;;;;;5052097;28;20172;-84
2022/07/22 08:25:24;;;;;;;1.63;0.57;;;18.40;72.80;;;;;;5050522;28;20582;-80
2022/07/22 08:27:49;;;;;;;3.13;0.60;;;18.40;24.00;;;;;;5051293;28;20219;-81
2022/07/22 08:30:17;;;;;;;0.90;0.57;;;18.30;39.30;;;;;;5051592;28;20240;-83
2022/07/22 08:32:42;;;;;;;2.13;0.50;;;18.50;1.00;;;;;;5051608;28;20183;-82
2022/07/22 08:35:08;;;;;;;3.50;0.30;;;18.70;1.00;;;;;;5051407;28;20414;-93
2022/07/22 08:37:34;;;;;;;1.57;0.47;;;18.70;1.00;;;;;;5054786;28;20177;-91
2022/07/22 08:40:00;;;;;;;2.93;0.50;;;18.70;1.00;;;;;;5052290;28;20521;-84
2022/07/22 08:42:26;;;;;;;1.83;0.43;;;18.80;1.00;;;;;;5052094;28;20807;-85
2022/07/22 08:44:53;;;;;;;3.37;0.40;;;18.90;1.00;;;;;;5051548;28;20203;-83
2022/07/22 08:47:23;;;;;;;1.93;0.40;;;19.10;1.00;;;;;;5051519;28;20537;-84
2022/07/22 08:49:49;;;;;;;1.03;0.20;;;19.40;99.90;;;;;;5051850;28;20470;-83
2022/07/22 08:52:15;;;;;;;2.03;0.33;;;19.50;1.00;;;;;;5053043;28;20428;-91
2022/07/22 08:54:40;;;;;;;1.10;0.23;;;19.30;99.90;;;;;;5057280;28;20513;-86
2022/07/22 08:57:06;;;;;;;3.40;0.50;;;19.00;1.00;;;;;;5044088;28;20191;-88
2022/07/22 08:59:31;;;;;;;3.10;0.40;;;18.90;1.00;;;;;;5037760;28;20180;-91
2022/07/22 09:02:08;;;;;;;2.00;0.50;;;18.80;1.00;;;;;;5043086;28;20703;-95
2022/07/22 09:04:55;;;;;;;1.27;0.27;;;18.60;1.00;;;;;;5042449;28;20177;-89
2022/07/22 09:07:30;;;;;;;1.80;0.30;;;18.40;1.00;;;;;;5039614;28;20443;-96
2022/07/22 09:09:57;;;;;;;3.13;1.03;;;18.40;1.00;;;;;;5040562;28;20858;-85
2022/07/22 09:12:23;;;;;;;0.73;0.30;;;18.50;1.00;;;;;;5040973;28;20415;-84
2022/07/22 09:14:51;;;;;;;1.27;0.30;;;18.50;1.00;;;;;;5038495;28;20418;-89
2022/07/22 09:17:35;;;;;;;1.03;0.20;;;18.70;1.00;;;;;;5054903;28;20950;-94
2022/07/22 09:20:02;;;;;;;1.53;0.40;;;19.00;1.00;;;;;;5037209;28;20421;-86
2022/07/22 09:22:39;;;;;;;1.93;0.40;;;19.40;99.90;;;;;;5043367;28;20427;-93
2022/07/22 09:25:23;;;;;;;1.67;0.53;;;19.80;99.90;;;;;;5054168;28;20923;-86
2022/07/22 09:27:50;;;;;;;0.70;0.20;;;20.20;99.90;;;;;;5037503;28;20602;-89
2022/07/22 09:30:19;;;;;;;1.93;0.30;;;20.20;1.00;;;;;;5037482;28;20470;-90
2022/07/22 09:32:45;;;;;;;3.30;0.40;;;20.40;1.00;;;;;;5053879;28;20426;-85
2022/07/22 09:35:12;;;;;;;1.53;0.20;;;20.30;1.00;;;;;;5036247;28;20432;-91
2022/07/22 09:38:07;;;;;;;0.73;0.23;;;20.10;1.00;;;;;;5035097;28;20177;-84
2022/07/22 09:40:41;;;;;;;0.83;0.20;;;19.80;99.90;;;;;;5036734;28;20437;-91
2022/07/22 09:43:12;;;;;;;1.47;0.30;;;19.40;1.00;;;;;;5055075;28;20824;-89
2022/07/22 09:45:58;;;;;;;1.33;0.30;;;19.30;1.00;;;;;;5064351;28;20457;-92
2022/07/22 09:48:25;;;;;;;1.30;0.40;;;19.10;99.90;;;;;;5067333;28;20415;-94
2022/07/22 09:50:53;;;;;;;2.53;0.47;;;19.20;99.90;;;;;;5062718;28;20476;-87
2022/07/22 09:53:20;;;;;;;1.20;0.20;;;19.30;1.00;;;;;;5056696;28;20434;-96
2022/07/22 09:55:47;;;;;;;2.13;0.30;;;19.30;99.90;;;;;;5063122;28;20519;-93
2022/07/22 09:58:12;;;;;;;3.67;0.80;;;19.20;1.00;;;;;;5056643;28;20915;-90
2022/07/22 10:00:39;;;;;;;1.33;0.40;;;19.20;99.90;;;;;;5055582;28;20515;-89
2022/07/22 10:03:06;;;;;;;1.97;0.40;;;19.30;1.00;;;;;;5054789;28;20179;-89
2022/07/22 10:05:37;;;;;;;1.73;0.43;;;19.30;99.90;;;;;;5055839;28;20413;-87
2022/07/22 10:08:05;;;;;;;1.07;0.30;;;19.10;99.90;;;;;;5057892;28;20817;-90
2022/07/22 10:10:32;;;;;;;1.00;0.30;;;19.10;99.90;;;;;;5054789;28;20467;-90
2022/07/22 10:12:59;;;;;;;1.43;0.23;;;19.30;72.80;;;;;;5057194;28;20407;-84
2022/07/22 10:15:26;;;;;;;0.50;0.30;;;19.50;1.00;;;;;;5059080;28;20522;-92
2022/07/22 10:17:56;;;;;;;1.40;0.67;;;19.80;1.00;;;;;;5057105;28;20439;-92
2022/07/22 10:20:27;;;;;;;2.10;0.50;;;20.00;1.00;;;;;;5056506;28;20407;-92
2022/07/22 10:22:56;;;;;;;1.87;0.50;;;20.30;1.00;;;;;;5055185;28;20421;-88
2022/07/22 10:25:24;;;;;;;1.77;0.30;;;20.30;99.90;;;;;;5057077;28;20405;-92
2022/07/22 10:27:54;;;;;;;1.50;0.47;;;20.90;1.00;;;;;;5059298;28;20782;-87
2022/07/22 10:30:35;;;;;;;1.27;0.30;;;21.10;1.00;;;;;;5057376;28;20474;-89
2022/07/22 10:33:19;;;;;;;2.17;0.20;;;21.20;1.00;;;;;;5055672;28;20415;-90
2022/07/22 10:35:57;;;;;;;0.70;0.20;;;21.30;99.90;;;;;;5055134;28;20431;-90
2022/07/22 10:38:23;;;;;;;1.83;0.47;;;21.40;7.60;;;;;;5056429;28;20424;-92
2022/07/22 10:40:52;;;;;;;3.07;0.20;;;21.40;1.00;;;;;;5056197;28;20410;-93
2022/07/22 10:43:22;;;;;;;3.50;0.30;;;21.20;1.00;;;;;;5057649;28;20423;-88
2022/07/22 10:45:55;;;;;;;2.43;0.43;;;21.10;1.00;;;;;;5059378;28;20400;-90
2022/07/22 10:48:36;;;;;;;0.77;0.20;;;21.20;1.00;;;;;;5055680;28;20412;-91
2022/07/22 10:51:07;;;;;;;3.50;0.40;;;21.40;1.00;;;;;;5057534;28;20414;-92
2022/07/22 10:53:45;;;;;;;2.47;0.53;;;21.40;1.00;;;;;;5053978;28;20411;-89
2022/07/22 10:56:19;;;;;;;4.83;0.40;;;21.10;1.00;;;;;;5053984;28;20776;-91
2022/07/22 10:59:06;;;;;;;1.60;0.30;;;20.90;99.90;;;;;;5053468;28;20445;-86
2022/07/22 11:01:32;;;;;;;1.80;0.53;;;20.70;99.90;;;;;;5069992;28;20873;-86
2022/07/22 11:04:14;;;;;;;0.80;0.50;;;20.70;99.90;;;;;;5070658;28;20435;-89
2022/07/22 11:06:41;;;;;;;1.27;0.40;;;21.10;99.90;;;;;;5068779;28;20190;-86
2022/07/22 11:09:12;;;;;;;1.33;0.30;;;21.30;1.00;;;;;;5074470;28;20527;-89
2022/07/22 11:11:43;;;;;;;3.07;0.30;;;22.10;99.90;;;;;;5073219;28;20411;-86
2022/07/22 11:14:20;;;;;;;0.70;0.30;;;21.90;99.90;;;;;;5072318;28;20441;-85
2022/07/22 11:16:48;;;;;;;2.90;0.50;;;21.30;1.00;;;;;;5058339;28;20450;-85
2022/07/22 11:19:18;;;;;;;1.23;0.33;;;21.30;1.00;;;;;;5053808;28;20415;-87
2022/07/22 11:21:58;;;;;;;1.53;0.40;;;21.10;99.90;;;;;;5053272;28;20419;-87
2022/07/22 11:24:25;;;;;;;1.70;0.30;;;21.40;1.00;;;;;;5053685;28;20821;-91
2022/07/22 11:26:53;;;;;;;0.57;0.20;;;21.60;99.90;;;;;;5054691;28;20502;-85
2022/07/22 11:29:28;;;;;;;3.70;0.60;;;21.80;99.90;;;;;;5051901;28;20566;-90
2022/07/22 11:31:57;;;;;;;0.50;0.27;;;21.90;99.90;;;;;;5056111;28;20912;-91
2022/07/22 11:34:23;;;;;;;1.37;0.20;;;21.50;99.90;;;;;;5057729;28;20460;-94
2022/07/22 11:36:49;;;;;;;1.37;0.20;;;21.30;99.90;;;;;;5065068;28;20419;-85
2022/07/22 11:39:19;;;;;;;1.30;0.30;;;21.20;99.90;;;;;;5060966;28;20423;-92
2022/07/22 11:41:44;;;;;;;1.93;0.40;;;21.00;1.00;;;;;;5062980;28;20444;-90
2022/07/22 11:44:10;;;;;;;1.67;0.23;;;21.00;1.00;;;;;;5061056;28;20424;-91
2022/07/22 11:46:41;;;;;;;2.83;0.57;;;21.60;99.90;;;;;;5059689;28;20172;-91
2022/07/22 11:49:12;;;;;;;2.20;0.40;;;22.10;99.90;;;;;;5063243;28;20201;-93
2022/07/22 11:51:38;;;;;;;1.23;0.30;;;22.50;99.90;;;;;;5061869;28;20758;-89
2022/07/22 11:54:04;;;;;;;1.10;0.20;;;23.30;99.90;;;;;;5064613;28;20442;-86
2022/07/22 11:56:31;;;;;;;0.90;0.20;;;23.60;99.90;;;;;;5071953;28;20169;-86
2022/07/22 11:58:57;;;;;;;1.20;0.33;;;23.60;54.30;;;;;;5073655;28;20411;-86
2022/07/22 12:01:25;;;;;;;1.10;0.30;;;24.60;54.30;;;;;;5073975;28;20488;-89
2022/07/22 12:03:54;;;;;;;0.40;0.20;;;24.80;41.70;;;;;;5075273;28;20404;-86
2022/07/22 12:06:21;;;;;;;1.37;0.20;;;24.50;38.80;;;;;;5062930;28;20424;-86
2022/07/22 12:08:49;;;;;;;1.17;0.27;;;25.80;27.80;;;;;;5058012;28;20487;-86
2022/07/22 12:11:17;;;;;;;1.07;0.27;;;25.10;17.40;;;;;;5058006;28;20408;-86
2022/07/22 12:13:47;;;;;;;0.87;0.37;;;25.20;12.10;;;;;;5060862;28;20443;-92
2022/07/22 12:16:18;;;;;;;1.47;0.37;;;24.80;10.40;;;;;;5051442;28;20942;-94
2022/07/22 12:18:49;;;;;;;3.07;0.33;;;23.70;15.10;;;;;;5052680;28;20428;-89
2022/07/22 12:21:16;;;;;;;1.27;0.30;;;23.50;34.90;;;;;;5052652;28;20411;-87
2022/07/22 12:23:50;;;;;;;1.20;0.30;;;23.30;59.60;;;;;;5052475;28;20469;-87
2022/07/22 12:26:19;;;;;;;1.33;0.23;;;23.50;95.80;;;;;;5052466;28;20900;-88
2022/07/22 12:28:44;;;;;;;1.00;0.20;;;23.40;99.90;;;;;;5051270;28;20479;-87
2022/07/22 12:31:10;;;;;;;1.00;0.30;;;23.10;99.90;;;;;;5051538;28;20425;-86
2022/07/22 12:33:36;;;;;;;0.50;0.20;;;23.00;99.90;;;;;;5053128;28;20173;-86
2022/07/22 12:36:06;;;;;;;1.07;0.23;;;22.60;99.90;;;;;;5053170;28;20197;-87
2022/07/22 12:38:32;;;;;;;1.43;0.33;;;22.40;99.90;;;;;;5051275;28;20603;-85
2022/07/22 12:41:20;;;;;;;0.90;0.30;;;22.50;99.90;;;;;;5051111;28;20415;-86
2022/07/22 12:43:46;;;;;;;2.27;0.40;;;22.30;99.90;;;;;;5053023;28;20415;-88
2022/07/22 12:46:11;;;;;;;0.70;0.30;;;22.20;99.90;;;;;;5053546;28;20773;-94
2022/07/22 12:48:37;;;;;;;0.50;0.20;;;22.30;99.90;;;;;;5052402;28;20173;-92